Terminal Aerodrome Forecast
Issued by NWS

Home | Current Version | Previous Version | Text Only | Print | Product List | Glossary On
Versions: 1 2 3 4 5 6 7 8 9 10 11 12 13 14 15 16
000
FTUS43 KGRB 230500
TAFMTW
TAF
KMTW 230539Z 2306/2406 19005KT 2SM -DZ BR OVC003
     FM230800 18008KT 1 1/2SM -DZ BR OVC003
      TEMPO 2308/2312 1/2SM -RA FG VV002
     FM231200 18009KT 1 1/2SM -RA BR OVC004
     FM231400 18011KT 2SM -RA BR OVC008
     FM232100 15007KT 2SM -RA BR OVC005
     FM240100 13005KT 1SM RA BR OVC002=

USA.gov is the U.S. government's official web portal to all federal, state and local government web resources and services.